Time;durP1;ratioP1;P1;durP2;ratioP2;P2;SDS_P1;SDS_P2;PMS_P1;PMS_P2;Temp;Humidity;BMP_temperature;BMP_pressure;BME280_temperature;BME280_humidity;BME280_pressure;Samples;Min_cycle;Max_cycle;Signal;HPM_P1;HPM_P2
2021/12/09 00:01:01;;;;;;;;;;;;;;;21.76;25.93;97489.03;4962798;29;986;-79
2021/12/09 00:03:28;;;;;;;;;;;;;;;21.82;25.75;97490.84;4958840;29;988;-79
2021/12/09 00:05:56;;;;;;;;;;;;;;;21.83;25.95;97500.91;4963050;29;1004;-78
2021/12/09 00:08:21;;;;;;;;;;;;;;;21.76;25.66;97504.00;4960228;29;942;-79
2021/12/09 00:10:47;;;;;;;;;;;;;;;21.83;25.61;97503.72;4963179;29;1159;-79
2021/12/09 00:13:12;;;;;;;;;;;;;;;21.94;25.49;97499.72;4961008;29;1026;-79
2021/12/09 00:15:37;;;;;;;;;;;;;;;21.77;25.65;97514.06;4963129;29;1976;-77
2021/12/09 00:18:03;;;;;;;;;;;;;;;21.40;25.60;97509.28;4993801;28;1073;-79
2021/12/09 00:20:28;;;;;;;;;;;;;;;21.36;25.81;97514.28;5004616;28;976;-79
2021/12/09 00:22:54;;;;;;;;;;;;;;;21.48;25.59;97524.78;5019985;28;1168;-78
2021/12/09 00:25:19;;;;;;;;;;;;;;;21.59;25.35;97526.00;5020024;28;996;-79
2021/12/09 00:27:45;;;;;;;;;;;;;;;21.59;25.69;97525.22;5020133;28;955;-80
2021/12/09 00:30:10;;;;;;;;;;;;;;;21.84;25.14;97519.47;5001618;28;900;-79
2021/12/09 00:32:36;;;;;;;;;;;;;;;22.04;24.74;97521.22;5041098;28;962;-79
2021/12/09 00:35:03;;;;;;;;;;;;;;;21.76;25.16;97518.16;5002927;28;1971;-80
2021/12/09 00:37:40;;;;;;;;;;;;;;;21.58;25.13;97517.97;5021690;28;1032;-78
2021/12/09 00:40:06;;;;;;;;;;;;;;;21.45;25.25;97511.53;4989803;28;1034;-78
2021/12/09 00:42:31;;;;;;;;;;;;;;;21.81;24.77;97509.06;5020932;28;1098;-79
2021/12/09 00:44:56;;;;;;;;;;;;;;;21.75;25.08;97510.09;5019428;28;976;-79
2021/12/09 00:47:22;;;;;;;;;;;;;;;21.97;24.82;97507.31;5021737;28;1043;-79
2021/12/09 00:49:49;;;;;;;;;;;;;;;21.92;24.52;97507.91;5019567;28;975;-79
2021/12/09 00:52:14;;;;;;;;;;;;;;;21.94;24.82;97499.72;5012541;28;1041;-79
2021/12/09 00:54:42;;;;;;;;;;;;;;;21.98;24.56;97500.41;4998432;28;980;-79
2021/12/09 00:57:07;;;;;;;;;;;;;;;21.87;24.87;97491.50;4969561;28;1025;-79
2021/12/09 00:59:33;;;;;;;;;;;;;;;21.87;24.61;97500.00;4941842;29;1205;-80
2021/12/09 01:01:58;;;;;;;;;;;;;;;21.77;24.64;97497.06;4943455;29;1118;-79
2021/12/09 01:04:24;;;;;;;;;;;;;;;21.67;24.68;97491.78;4924894;29;982;-78
2021/12/09 01:06:49;;;;;;;;;;;;;;;21.50;25.06;97491.13;4975379;28;987;-78
2021/12/09 01:09:15;;;;;;;;;;;;;;;21.49;25.07;97486.72;4982146;28;916;-78
2021/12/09 01:11:40;;;;;;;;;;;;;;;21.70;24.67;97482.38;4984428;28;1024;-79
2021/12/09 01:14:06;;;;;;;;;;;;;;;21.74;24.86;97492.31;4982399;28;1013;-79
2021/12/09 01:16:31;;;;;;;;;;;;;;;21.65;24.80;97488.59;4969288;28;1966;-79
2021/12/09 01:18:57;;;;;;;;;;;;;;;21.68;24.60;97485.66;4982546;28;951;-79
2021/12/09 01:21:22;;;;;;;;;;;;;;;21.77;24.78;97474.44;4985642;28;1225;-80
2021/12/09 01:23:48;;;;;;;;;;;;;;;21.69;24.53;97475.13;4925579;29;939;-79
2021/12/09 01:26:13;;;;;;;;;;;;;;;21.78;24.73;97481.66;4909461;29;1110;-79
2021/12/09 01:28:53;;;;;;;;;;;;;;;21.81;24.64;97471.44;4908887;29;923;-80
2021/12/09 01:31:33;;;;;;;;;;;;;;;21.60;24.60;97478.66;4895852;29;1032;-80
2021/12/09 01:34:02;;;;;;;;;;;;;;;21.49;25.04;97464.88;4889144;29;1114;-76
2021/12/09 01:36:32;;;;;;;;;;;;;;;21.93;24.32;97475.50;4910030;29;1903;-79
2021/12/09 01:38:57;;;;;;;;;;;;;;;21.97;24.50;97470.50;4946292;29;928;-80
2021/12/09 01:41:23;;;;;;;;;;;;;;;22.02;24.21;97473.53;4947500;29;1006;-80
2021/12/09 01:43:49;;;;;;;;;;;;;;;21.89;24.24;97480.50;4943982;29;964;-80
2021/12/09 01:46:15;;;;;;;;;;;;;;;21.82;24.73;97479.50;4948555;29;997;-79
2021/12/09 01:48:41;;;;;;;;;;;;;;;21.73;24.51;97479.41;4944698;29;1007;-79
2021/12/09 01:51:06;;;;;;;;;;;;;;;21.79;24.56;97474.75;4929174;29;1177;-79
2021/12/09 01:53:32;;;;;;;;;;;;;;;21.66;24.74;97474.00;4905343;29;1009;-80
2021/12/09 01:56:01;;;;;;;;;;;;;;;22.02;24.35;97472.72;4968657;28;1985;-80
2021/12/09 01:58:27;;;;;;;;;;;;;;;21.79;24.54;97477.56;4943951;29;930;-79
2021/12/09 02:00:52;;;;;;;;;;;;;;;21.45;24.65;97480.41;4950036;29;960;-80
2021/12/09 02:03:18;;;;;;;;;;;;;;;21.48;25.26;97482.31;4964972;29;916;-80
2021/12/09 02:05:43;;;;;;;;;;;;;;;21.69;24.71;97483.63;4969229;28;943;-79
2021/12/09 02:08:11;;;;;;;;;;;;;;;21.74;24.85;97483.03;4967050;29;1000;-80
2021/12/09 02:10:37;;;;;;;;;;;;;;;21.85;24.40;97477.78;4968724;28;909;-80
2021/12/09 02:13:02;;;;;;;;;;;;;;;21.84;24.63;97482.66;4967148;29;983;-80
2021/12/09 02:15:28;;;;;;;;;;;;;;;21.79;24.51;97488.91;4968515;28;1880;-80
2021/12/09 02:17:55;;;;;;;;;;;;;;;21.95;24.62;97495.63;4968279;29;923;-81
2021/12/09 02:20:20;;;;;;;;;;;;;;;21.93;24.64;97498.94;4967475;28;1022;-80
2021/12/09 02:22:47;;;;;;;;;;;;;;;21.76;24.57;97495.50;4968119;28;1061;-81
2021/12/09 02:25:16;;;;;;;;;;;;;;;21.46;24.92;97498.97;4997904;28;1194;-79
2021/12/09 02:27:41;;;;;;;;;;;;;;;21.46;25.05;97499.78;5039125;28;997;-80
2021/12/09 02:30:07;;;;;;;;;;;;;;;21.64;24.98;97533.13;5078087;28;960;-80
2021/12/09 02:32:33;;;;;;;;;;;;;;;21.77;24.85;97519.72;5089511;28;848;-80
2021/12/09 02:34:58;;;;;;;;;;;;;;;21.78;24.78;97509.97;5087515;28;1909;-80
2021/12/09 02:37:23;;;;;;;;;;;;;;;22.03;24.14;97519.66;5046918;28;1019;-80
2021/12/09 02:39:49;;;;;;;;;;;;;;;21.89;24.55;97509.59;5045005;28;1015;-80
2021/12/09 02:42:14;;;;;;;;;;;;;;;21.76;24.56;97521.00;5047135;28;963;-80
2021/12/09 02:44:40;;;;;;;;;;;;;;;21.85;24.49;97518.22;5044677;28;1034;-77
2021/12/09 02:47:06;;;;;;;;;;;;;;;21.79;24.71;97511.56;5047535;28;979;-80
2021/12/09 02:49:31;;;;;;;;;;;;;;;21.40;24.97;97515.75;5044631;28;1031;-81
2021/12/09 02:51:58;;;;;;;;;;;;;;;21.41;25.38;97519.38;5047174;28;1041;-80
2021/12/09 02:54:23;;;;;;;;;;;;;;;21.76;24.90;97518.16;5044217;28;1124;-79
2021/12/09 02:56:50;;;;;;;;;;;;;;;21.76;25.14;97529.47;5046191;28;1995;-81
2021/12/09 02:59:15;;;;;;;;;;;;;;;21.72;25.13;97528.81;5044522;28;807;-80
2021/12/09 03:01:49;;;;;;;;;;;;;;;21.84;25.00;97519.47;5046612;28;974;-80
2021/12/09 03:04:15;;;;;;;;;;;;;;;21.91;24.59;97523.31;5044301;28;1011;-80
2021/12/09 03:06:41;;;;;;;;;;;;;;;21.45;25.40;97525.69;5046323;28;1104;-80
2021/12/09 03:09:08;;;;;;;;;;;;;;;21.22;25.75;97524.78;5078695;28;911;-80
2021/12/09 03:11:33;;;;;;;;;;;;;;;21.63;25.37;97530.75;5088561;28;956;-80
2021/12/09 03:13:59;;;;;;;;;;;;;;;21.66;25.31;97539.13;5085873;28;910;-79
2021/12/09 03:16:25;;;;;;;;;;;;;;;21.88;25.14;97546.88;5088847;28;1922;-80
2021/12/09 03:18:55;;;;;;;;;;;;;;;21.81;25.13;97550.75;5084599;28;1027;-79
2021/12/09 03:21:22;;;;;;;;;;;;;;;21.84;24.99;97542.13;5088422;28;931;-80
2021/12/09 03:23:48;;;;;;;;;;;;;;;21.63;25.46;97542.88;5062129;28;957;-80
2021/12/09 03:26:13;;;;;;;;;;;;;;;21.48;25.46;97536.91;5066810;28;1010;-80
2021/12/09 03:28:39;;;;;;;;;;;;;;;21.83;25.22;97542.59;5062654;28;931;-79
2021/12/09 03:31:04;;;;;;;;;;;;;;;21.79;25.56;97539.88;5027383;28;964;-79
2021/12/09 03:33:30;;;;;;;;;;;;;;;21.86;25.13;97538.84;5022376;28;993;-78
2021/12/09 03:35:56;;;;;;;;;;;;;;;21.97;25.15;97538.47;5026416;28;1962;-80
2021/12/09 03:38:22;;;;;;;;;;;;;;;21.76;25.25;97543.66;4983303;28;1032;-79
2021/12/09 03:40:47;;;;;;;;;;;;;;;21.52;25.42;97543.22;4986572;28;955;-78
2021/12/09 03:43:12;;;;;;;;;;;;;;;21.63;25.68;97542.09;4984157;28;1209;-80
2021/12/09 03:45:38;;;;;;;;;;;;;;;21.85;25.59;97538.03;4986458;28;931;-80
2021/12/09 03:48:04;;;;;;;;;;;;;;;21.75;25.52;97541.25;4968586;28;990;-80
2021/12/09 03:50:29;;;;;;;;;;;;;;;21.99;25.10;97538.81;4985754;28;967;-79
2021/12/09 03:52:55;;;;;;;;;;;;;;;22.00;25.02;97532.66;4965474;28;1612;-79
2021/12/09 03:55:20;;;;;;;;;;;;;;;22.01;25.21;97533.47;4938468;29;1911;-79
2021/12/09 03:57:45;;;;;;;;;;;;;;;21.93;25.42;97532.16;4943563;29;1018;-79
2021/12/09 04:00:11;;;;;;;;;;;;;;;21.72;25.72;97540.13;4943607;29;940;-79
2021/12/09 04:02:37;;;;;;;;;;;;;;;21.83;25.25;97540.56;4958715;29;1257;-80
2021/12/09 04:05:03;;;;;;;;;;;;;;;21.65;25.48;97540.38;4962043;29;883;-79
2021/12/09 04:07:28;;;;;;;;;;;;;;;21.50;26.05;97533.59;4931706;29;959;-79
2021/12/09 04:09:54;;;;;;;;;;;;;;;21.79;25.69;97534.22;4961986;29;1063;-79
2021/12/09 04:12:20;;;;;;;;;;;;;;;21.91;25.31;97534.63;4963756;29;886;-80
2021/12/09 04:14:45;;;;;;;;;;;;;;;21.95;25.63;97532.47;4978870;28;1287;-79
2021/12/09 04:17:10;;;;;;;;;;;;;;;21.81;25.63;97537.41;4997274;28;1918;-79
2021/12/09 04:19:36;;;;;;;;;;;;;;;22.14;25.27;97539.91;5000440;28;971;-79
2021/12/09 04:22:02;;;;;;;;;;;;;;;21.92;25.16;97547.56;5002165;28;965;-78
2021/12/09 04:24:27;;;;;;;;;;;;;;;21.68;25.61;97545.13;5000595;28;982;-79
2021/12/09 04:26:52;;;;;;;;;;;;;;;21.58;25.87;97551.94;5047044;28;942;-79
2021/12/09 04:29:18;;;;;;;;;;;;;;;21.79;25.83;97559.69;5061532;28;871;-79
2021/12/09 04:31:43;;;;;;;;;;;;;;;21.93;25.46;97549.13;5063682;28;894;-80
2021/12/09 04:34:09;;;;;;;;;;;;;;;21.92;25.73;97548.34;5061982;28;851;-80
2021/12/09 04:36:35;;;;;;;;;;;;;;;22.02;25.37;97543.53;5041804;28;1991;-80
2021/12/09 04:39:01;;;;;;;;;;;;;;;21.92;25.80;97541.91;5039430;28;962;-79
2021/12/09 04:41:26;;;;;;;;;;;;;;;21.99;25.51;97541.63;5041488;28;1010;-79
2021/12/09 04:43:51;;;;;;;;;;;;;;;21.68;25.87;97545.13;5038594;28;875;-79
2021/12/09 04:46:17;;;;;;;;;;;;;;;21.48;26.27;97542.56;5041577;28;970;-79
2021/12/09 04:48:42;;;;;;;;;;;;;;;21.76;25.91;97542.81;5038878;28;890;-79
2021/12/09 04:51:08;;;;;;;;;;;;;;;21.75;25.90;97542.03;5045393;28;1281;-80
2021/12/09 04:53:33;;;;;;;;;;;;;;;21.82;25.88;97544.63;5058330;28;909;-79
2021/12/09 04:55:59;;;;;;;;;;;;;;;21.89;25.84;97549.25;5044874;28;1906;-78
2021/12/09 04:58:25;;;;;;;;;;;;;;;21.82;25.90;97536.16;5058296;28;999;-79
2021/12/09 05:00:51;;;;;;;;;;;;;;;21.62;25.94;97541.28;5062064;28;869;-79
2021/12/09 05:03:16;;;;;;;;;;;;;;;21.41;26.36;97536.34;5058485;28;938;-79
2021/12/09 05:05:43;;;;;;;;;;;;;;;21.64;26.23;97538.78;5000969;28;1167;-79
2021/12/09 05:08:12;;;;;;;;;;;;;;;21.63;26.23;97531.53;4993570;28;964;-79
2021/12/09 05:10:53;;;;;;;;;;;;;;;21.77;26.06;97536.72;5001536;28;900;-79
2021/12/09 05:13:19;;;;;;;;;;;;;;;21.83;25.75;97546.22;4970738;28;898;-79
2021/12/09 05:15:45;;;;;;;;;;;;;;;21.73;25.90;97536.06;5001406;28;1918;-79
2021/12/09 05:18:10;;;;;;;;;;;;;;;21.61;26.02;97534.06;4982708;28;983;-79
2021/12/09 05:20:36;;;;;;;;;;;;;;;21.47;25.81;97534.53;5000978;28;935;-78
2021/12/09 05:23:01;;;;;;;;;;;;;;;21.60;26.11;97538.09;4999393;28;943;-79
2021/12/09 05:25:27;;;;;;;;;;;;;;;21.88;26.12;97541.22;5000389;28;980;-79
2021/12/09 05:27:53;;;;;;;;;;;;;;;22.45;25.82;97539.19;5000303;28;1270;-79
2021/12/09 05:30:24;;;;;;;;;;;;;;;21.69;27.38;97538.22;5000118;28;1650;-79
2021/12/09 05:32:49;;;;;;;;;;;;;;;21.46;28.12;97547.09;5000385;28;1917;-79
2021/12/09 05:35:15;;;;;;;;;;;;;;;22.06;26.93;97552.72;5000175;28;1972;-79
2021/12/09 05:37:40;;;;;;;;;;;;;;;22.25;27.16;97554.47;5037402;28;1029;-79
2021/12/09 05:40:06;;;;;;;;;;;;;;;21.28;29.12;97556.91;5076929;28;868;-79
2021/12/09 05:42:32;;;;;;;;;;;;;;;21.64;28.55;97558.59;5081620;28;1408;-79
2021/12/09 05:44:57;;;;;;;;;;;;;;;21.65;28.45;97568.69;5079119;28;1558;-78
2021/12/09 05:47:23;;;;;;;;;;;;;;;21.94;28.25;97570.53;5079877;28;1729;-79
2021/12/09 05:49:49;;;;;;;;;;;;;;;22.24;27.22;97569.13;5081159;28;941;-79
2021/12/09 05:52:15;;;;;;;;;;;;;;;22.29;26.95;97569.31;5060727;28;1033;-79
2021/12/09 05:54:40;;;;;;;;;;;;;;;21.91;27.60;97569.41;5058874;28;1496;-79
2021/12/09 05:57:06;;;;;;;;;;;;;;;22.15;27.16;97566.97;5047970;28;1965;-80
2021/12/09 05:59:31;;;;;;;;;;;;;;;22.13;27.57;97586.50;5064463;28;921;-80
2021/12/09 06:01:57;;;;;;;;;;;;;;;22.02;27.55;97569.84;5067214;28;1038;-79
2021/12/09 06:04:22;;;;;;;;;;;;;;;21.84;27.61;97578.16;5059640;28;1499;-80
2021/12/09 06:06:48;;;;;;;;;;;;;;;21.66;27.85;97570.28;5065722;28;1448;-80
2021/12/09 06:09:14;;;;;;;;;;;;;;;21.85;28.14;97572.03;5064521;28;960;-79
2021/12/09 06:11:39;;;;;;;;;;;;;;;21.97;27.72;97578.94;5061166;28;1507;-78
2021/12/09 06:14:06;;;;;;;;;;;;;;;21.96;27.71;97579.38;5062895;28;971;-79
2021/12/09 06:16:32;;;;;;;;;;;;;;;21.83;28.00;97585.88;5050150;28;1975;-80
2021/12/09 06:18:57;;;;;;;;;;;;;;;21.73;27.82;97581.34;5036005;28;1009;-79
2021/12/09 06:21:27;;;;;;;;;;;;;;;21.65;27.69;97594.16;5045571;28;936;-80
2021/12/09 06:23:53;;;;;;;;;;;;;;;21.91;27.73;97585.63;5042385;28;977;-79
2021/12/09 06:26:19;;;;;;;;;;;;;;;21.79;27.79;97585.19;5044134;28;1589;-79
2021/12/09 06:28:45;;;;;;;;;;;;;;;21.93;27.82;97588.78;5037123;28;1519;-80
2021/12/09 06:31:10;;;;;;;;;;;;;;;21.75;28.07;97593.00;5026990;28;924;-80
2021/12/09 06:33:35;;;;;;;;;;;;;;;21.67;27.86;97594.50;5021856;28;1111;-79
2021/12/09 06:36:01;;;;;;;;;;;;;;;21.64;27.81;97584.09;5026138;28;1950;-79
2021/12/09 06:38:26;;;;;;;;;;;;;;;21.62;28.38;97592.25;5023192;28;1445;-79
2021/12/09 06:40:52;;;;;;;;;;;;;;;21.72;28.26;97601.66;5006348;28;926;-79
2021/12/09 06:43:17;;;;;;;;;;;;;;;21.96;27.91;97599.97;4970839;28;990;-79
2021/12/09 06:45:43;;;;;;;;;;;;;;;21.92;27.50;97599.34;5005888;28;995;-78
2021/12/09 06:48:08;;;;;;;;;;;;;;;21.83;27.72;97602.88;5003519;28;1050;-78
2021/12/09 06:50:34;;;;;;;;;;;;;;;21.71;27.59;97609.34;5072779;28;1497;-79
2021/12/09 06:53:00;;;;;;;;;;;;;;;21.77;28.00;97615.22;5062686;28;1059;-79
2021/12/09 06:55:25;;;;;;;;;;;;;;;22.33;27.29;97609.66;5063885;28;1882;-79
2021/12/09 06:57:50;;;;;;;;;;;;;;;22.76;26.46;97610.13;5064128;28;964;-80
2021/12/09 07:00:20;;;;;;;;;;;;;;;22.32;26.81;97610.91;5063500;28;1472;-79
2021/12/09 07:02:45;;;;;;;;;;;;;;;21.90;27.05;97615.19;5064624;28;981;-80
2021/12/09 07:05:11;;;;;;;;;;;;;;;21.83;27.96;97614.19;5063236;28;950;-80
2021/12/09 07:07:37;;;;;;;;;;;;;;;22.60;26.79;97616.81;5063999;28;980;-80
2021/12/09 07:10:03;;;;;;;;;;;;;;;22.66;26.61;97609.28;5055327;28;1527;-79
2021/12/09 07:12:34;;;;;;;;;;;;;;;22.41;26.72;97612.22;5064877;28;969;-80
2021/12/09 07:15:00;;;;;;;;;;;;;;;22.00;26.87;97605.53;5046301;28;1897;-80
2021/12/09 07:17:25;;;;;;;;;;;;;;;21.79;27.82;97607.84;5045238;28;1031;-79
2021/12/09 07:19:51;;;;;;;;;;;;;;;21.98;27.50;97605.22;5042830;28;993;-80
2021/12/09 07:22:16;;;;;;;;;;;;;;;21.95;27.86;97612.56;5024818;28;912;-78
2021/12/09 07:24:42;;;;;;;;;;;;;;;21.72;27.91;97618.63;5038379;28;1582;-80
2021/12/09 07:27:07;;;;;;;;;;;;;;;21.59;27.81;97610.13;5044500;28;1831;-80
2021/12/09 07:29:33;;;;;;;;;;;;;;;21.97;27.47;97607.25;5026310;28;1024;-80
2021/12/09 07:31:58;;;;;;;;;;;;;;;22.06;27.97;97617.88;5044133;28;1508;-79
2021/12/09 07:34:23;;;;;;;;;;;;;;;22.02;27.71;97608.69;5041977;28;948;-80
2021/12/09 07:36:49;;;;;;;;;;;;;;;21.99;27.52;97609.63;5043818;28;1966;-80
2021/12/09 07:39:14;;;;;;;;;;;;;;;21.72;28.11;97613.75;5042326;28;900;-80
2021/12/09 07:41:40;;;;;;;;;;;;;;;21.72;27.73;97624.31;5044033;28;1519;-79
2021/12/09 07:44:05;;;;;;;;;;;;;;;22.09;27.63;97623.41;5038362;28;967;-74
2021/12/09 07:46:34;;;;;;;;;;;;;;;22.34;27.21;97619.75;5034051;28;1008;-74
2021/12/09 07:48:59;;;;;;;;;;;;;;;22.05;27.27;97624.78;5012671;28;1120;-74
2021/12/09 07:51:24;;;;;;;;;;;;;;;21.77;27.63;97633.00;5039291;28;1617;-79
2021/12/09 07:53:50;;;;;;;;;;;;;;;21.61;27.93;97635.97;5040329;28;1116;-79
2021/12/09 07:56:16;;;;;;;;;;;;;;;21.98;27.66;97642.84;5042468;28;1886;-79
2021/12/09 07:58:41;;;;;;;;;;;;;;;22.02;27.47;97642.69;5040920;28;929;-79
2021/12/09 08:01:06;;;;;;;;;;;;;;;22.09;27.44;97648.91;5061528;28;1439;-79
2021/12/09 08:03:33;;;;;;;;;;;;;;;22.07;27.32;97644.94;5059779;28;1395;-79
2021/12/09 08:05:58;;;;;;;;;;;;;;;21.82;27.79;97655.09;5047539;28;961;-79
2021/12/09 08:08:24;;;;;;;;;;;;;;;21.75;27.86;97643.97;5059457;28;1222;-80
2021/12/09 08:10:49;;;;;;;;;;;;;;;21.84;27.87;97649.75;5063060;28;1555;-79
2021/12/09 08:13:15;;;;;;;;;;;;;;;22.32;27.47;97644.91;5043048;28;1203;-79
2021/12/09 08:15:45;;;;;;;;;;;;;;;23.05;26.17;97646.75;5063192;28;1957;-79
2021/12/09 08:18:25;;;;;;;;;;;;;;;22.56;26.29;97653.00;5060587;28;933;-79
2021/12/09 08:20:51;;;;;;;;;;;;;;;21.82;27.34;97646.59;5048708;28;1500;-80
2021/12/09 08:23:17;;;;;;;;;;;;;;;21.64;28.08;97657.69;5060384;28;1599;-79
2021/12/09 08:25:43;;;;;;;;;;;;;;;22.23;27.69;97652.56;5002755;28;1481;-80
2021/12/09 08:28:09;;;;;;;;;;;;;;;22.45;26.96;97652.59;4982135;28;993;-79
2021/12/09 08:30:36;;;;;;;;;;;;;;;22.27;27.25;97648.31;4983461;28;951;-79
2021/12/09 08:33:02;;;;;;;;;;;;;;;22.09;27.16;97653.81;4982647;28;938;-79
2021/12/09 08:35:27;;;;;;;;;;;;;;;21.73;27.55;97649.31;4980986;28;1915;-79
2021/12/09 08:37:56;;;;;;;;;;;;;;;21.97;27.59;97646.91;4983245;28;1784;-80
2021/12/09 08:40:22;;;;;;;;;;;;;;;21.85;27.82;97642.84;4981408;28;1431;-78
2021/12/09 08:42:49;;;;;;;;;;;;;;;22.03;27.48;97627.31;4982966;28;1646;-78
2021/12/09 08:45:15;;;;;;;;;;;;;;;21.78;27.91;97628.94;4950446;28;1521;-79
2021/12/09 08:47:41;;;;;;;;;;;;;;;21.67;28.20;97628.50;4982935;28;966;-79
2021/12/09 08:50:07;;;;;;;;;;;;;;;21.94;28.00;97624.38;4981762;28;881;-79
2021/12/09 08:52:33;;;;;;;;;;;;;;;22.03;27.88;97615.97;5001363;28;1230;-79
2021/12/09 08:54:58;;;;;;;;;;;;;;;21.89;28.13;97603.06;5007409;28;1363;-79
2021/12/09 08:57:24;;;;;;;;;;;;;;;22.00;27.64;97611.22;5019580;28;1910;-80
2021/12/09 08:59:49;;;;;;;;;;;;;;;21.47;28.68;97608.91;5023545;28;961;-80
2021/12/09 09:02:15;;;;;;;;;;;;;;;21.87;27.91;97597.09;5042970;28;991;-79
2021/12/09 09:04:41;;;;;;;;;;;;;;;21.72;27.58;97585.44;5024549;28;1569;-79
2021/12/09 09:07:06;;;;;;;;;;;;;;;21.83;28.01;97582.25;5062268;28;1825;-79
2021/12/09 09:09:34;;;;;;;;;;;;;;;21.72;28.39;97579.78;5043416;28;1321;-79
2021/12/09 09:12:00;;;;;;;;;;;;;;;21.91;28.07;97579.94;5061566;28;1921;-79
2021/12/09 09:14:26;;;;;;;;;;;;;;;21.77;28.25;97576.38;5060099;28;960;-79
2021/12/09 09:16:51;;;;;;;;;;;;;;;21.71;28.42;97571.72;5062329;28;1902;-79
2021/12/09 09:19:17;;;;;;;;;;;;;;;21.72;28.14;97573.31;5061417;28;895;-79
2021/12/09 09:21:42;;;;;;;;;;;;;;;22.07;27.82;97576.94;5062244;28;946;-80
2021/12/09 09:24:08;;;;;;;;;;;;;;;22.72;26.77;97581.91;5060297;28;1503;-79
2021/12/09 09:26:33;;;;;;;;;;;;;;;22.45;26.99;97578.88;5062585;28;969;-79
2021/12/09 09:28:59;;;;;;;;;;;;;;;22.34;26.74;97574.41;5048257;28;1352;-79
2021/12/09 09:31:27;;;;;;;;;;;;;;;21.89;27.49;97571.13;5066570;28;949;-79
2021/12/09 09:33:53;;;;;;;;;;;;;;;21.70;28.36;97567.31;5063101;28;985;-80
2021/12/09 09:36:18;;;;;;;;;;;;;;;21.81;28.23;97574.22;5067395;28;1967;-79
2021/12/09 09:38:44;;;;;;;;;;;;;;;21.98;27.97;97562.72;5026620;28;979;-80
2021/12/09 09:41:12;;;;;;;;;;;;;;;21.82;28.32;97564.47;5030809;28;884;-79
2021/12/09 09:43:55;;;;;;;;;;;;;;;21.93;28.09;97569.75;5022520;28;1015;-80
2021/12/09 09:46:21;;;;;;;;;;;;;;;21.71;28.27;97552.72;5027224;28;890;-79
2021/12/09 09:48:48;;;;;;;;;;;;;;;22.03;28.09;97559.31;5022657;28;997;-79
2021/12/09 09:51:13;;;;;;;;;;;;;;;21.93;28.25;97563.31;5024909;28;1508;-79
2021/12/09 09:53:41;;;;;;;;;;;;;;;22.05;27.94;97563.25;5002785;28;1709;-80
2021/12/09 09:56:13;;;;;;;;;;;;;;;21.84;28.12;97553.47;4987288;28;1918;-79
2021/12/09 09:58:48;;;;;;;;;;;;;;;21.62;28.27;97549.78;4982774;28;1072;-78
2021/12/09 10:01:14;;;;;;;;;;;;;;;21.67;28.38;97554.88;5007221;28;965;-79
2021/12/09 10:03:45;;;;;;;;;;;;;;;22.05;28.07;97545.47;5002513;28;967;-79
2021/12/09 10:06:11;;;;;;;;;;;;;;;22.01;28.12;97551.25;5003251;28;1497;-79
2021/12/09 10:08:36;;;;;;;;;;;;;;;21.93;28.38;97554.81;4983397;28;1525;-80
2021/12/09 10:11:02;;;;;;;;;;;;;;;21.93;27.81;97549.13;4986644;28;976;-79
2021/12/09 10:13:29;;;;;;;;;;;;;;;21.84;28.19;97553.47;4985789;28;991;-78
2021/12/09 10:15:54;;;;;;;;;;;;;;;21.70;28.01;97542.63;5063850;28;2131;-79
2021/12/09 10:18:39;;;;;;;;;;;;;;;21.60;28.61;97538.09;5021785;28;988;-79
2021/12/09 10:21:05;;;;;;;;;;;;;;;21.92;28.18;97541.91;5025264;28;960;-79
2021/12/09 10:23:32;;;;;;;;;;;;;;;22.01;28.03;97537.06;5004617;28;897;-79
2021/12/09 10:26:10;;;;;;;;;;;;;;;21.82;28.13;97532.53;5025160;28;1516;-79
2021/12/09 10:28:36;;;;;;;;;;;;;;;21.66;28.48;97524.16;5004540;28;971;-80
2021/12/09 10:31:09;;;;;;;;;;;;;;;21.64;28.66;97521.78;5026200;28;938;-79
2021/12/09 10:33:58;;;;;;;;;;;;;;;21.95;28.61;97512.63;5021214;28;1007;-79
2021/12/09 10:36:50;;;;;;;;;;;;;;;22.79;26.84;97513.53;5024528;28;1914;-80
2021/12/09 10:39:17;;;;;;;;;;;;;;;22.20;27.48;97511.78;4982786;28;989;-79
2021/12/09 10:41:42;;;;;;;;;;;;;;;22.11;27.44;97506.81;4984919;28;1078;-78
2021/12/09 10:44:07;;;;;;;;;;;;;;;21.84;28.08;97499.66;4981443;28;1045;-78
2021/12/09 10:46:48;;;;;;;;;;;;;;;21.73;28.61;97496.41;4982193;28;1522;-78
2021/12/09 10:49:14;;;;;;;;;;;;;;;21.88;28.61;97501.56;4978169;28;933;-77
2021/12/09 10:51:55;;;;;;;;;;;;;;;21.82;28.85;97499.31;4978759;28;1226;-77
2021/12/09 10:54:33;;;;;;;;;;;;;;;21.87;28.22;97489.47;4977561;28;1410;-77
2021/12/09 10:57:17;;;;;;;;;;;;;;;21.68;28.47;97499.03;4958288;29;1954;-76
2021/12/09 10:59:43;;;;;;;;;;;;;;;21.75;28.66;97496.72;4957277;29;1025;-76
2021/12/09 11:02:09;;;;;;;;;;;;;;;22.06;28.25;97479.03;4958145;29;1157;-76
2021/12/09 11:04:34;;;;;;;;;;;;;;;21.95;28.67;97489.97;4958948;28;1744;-76
2021/12/09 11:07:00;;;;;;;;;;;;;;;22.06;28.51;97481.88;4976732;28;1069;-76
2021/12/09 11:09:25;;;;;;;;;;;;;;;21.98;28.51;97486.25;4979169;28;1544;-76
2021/12/09 11:11:54;;;;;;;;;;;;;;;21.78;28.30;97487.31;4976614;28;1010;-76
2021/12/09 11:14:21;;;;;;;;;;;;;;;21.75;28.49;97488.22;4992652;28;1143;-76
2021/12/09 11:16:50;;;;;;;;;;;;;;;21.80;28.83;97490.47;5057514;28;1897;-76
2021/12/09 11:19:39;;;;;;;;;;;;;;;21.91;28.74;97477.97;5076936;28;1514;-76
2021/12/09 11:22:06;;;;;;;;;;;;;;;21.82;28.83;97493.66;5060870;28;1015;-76
2021/12/09 11:24:34;;;;;;;;;;;;;;;22.06;28.60;97484.72;5077254;28;1602;-76
2021/12/09 11:27:04;;;;;;;;;;;;;;;22.42;27.74;97477.75;5078191;28;962;-76
2021/12/09 11:29:31;;;;;;;;;;;;;;;22.36;27.46;97474.72;5077437;28;1098;-76
2021/12/09 11:34:57;;;;;;;;;;;;;;;21.89;28.80;97474.81;4995251;28;1761;-76
2021/12/09 11:39:55;;;;;;;;;;;;;;;21.82;28.75;97475.88;5002507;28;1675;-76
2021/12/09 11:42:26;;;;;;;;;;;;;;;21.98;28.51;97484.19;5015648;28;984;-76
2021/12/09 11:44:52;;;;;;;;;;;;;;;21.77;28.78;97480.09;5015100;28;995;-76
2021/12/09 11:47:17;;;;;;;;;;;;;;;21.53;28.55;97481.75;5015140;28;977;-77
2021/12/09 11:49:43;;;;;;;;;;;;;;;21.74;28.99;97491.53;5014776;28;1628;-76
2021/12/09 11:52:12;;;;;;;;;;;;;;;21.88;28.58;97478.91;5013910;28;1075;-76
2021/12/09 11:54:38;;;;;;;;;;;;;;;21.89;28.67;97483.31;5014873;28;986;-76
2021/12/09 11:57:29;;;;;;;;;;;;;;;21.84;28.64;97471.31;5015441;28;1913;-76
2021/12/09 12:11:16;;;;;;;;;;;;;;;22.01;28.46;97471.13;4942011;28;1030;-76
2021/12/09 12:13:56;;;;;;;;;;;;;;;21.83;28.21;97478.25;4975195;28;1060;-76
2021/12/09 12:19:37;;;;;;;;;;;;;;;21.71;28.71;97481.09;4969514;28;1502;-77
2021/12/09 12:22:30;;;;;;;;;;;;;;;21.88;28.54;97478.91;4956266;29;1020;-77
2021/12/09 12:27:59;;;;;;;;;;;;;;;21.73;28.46;97473.75;4918074;29;1013;-76
2021/12/09 12:30:35;;;;;;;;;;;;;;;21.53;28.66;97467.59;4930969;29;1523;-76
2021/12/09 12:33:20;;;;;;;;;;;;;;;21.85;28.76;97475.72;4941368;29;1074;-77
2021/12/09 12:36:02;;;;;;;;;;;;;;;21.85;28.61;97477.78;4956283;29;1895;-77
2021/12/09 12:41:08;;;;;;;;;;;;;;;21.91;28.30;97472.31;4936857;29;1346;-76
2021/12/09 12:43:39;;;;;;;;;;;;;;;21.68;28.42;97470.72;4898127;29;947;-76
2021/12/09 12:51:28;;;;;;;;;;;;;;;22.64;27.60;97472.84;4975253;28;1198;-76
2021/12/09 12:53:55;;;;;;;;;;;;;;;22.35;27.84;97482.44;4973983;28;1550;-76
2021/12/09 12:56:21;;;;;;;;;;;;;;;22.46;26.95;97489.75;4942893;28;1914;-76
2021/12/09 12:59:13;;;;;;;;;;;;;;;21.90;27.88;97487.72;4989005;28;982;-75
2021/12/09 13:01:42;;;;;;;;;;;;;;;21.90;28.95;97488.53;4994532;28;1088;-76
2021/12/09 13:04:28;;;;;;;;;;;;;;;22.52;28.13;97496.38;4994469;28;1614;-76
2021/12/09 13:07:00;;;;;;;;;;;;;;;22.75;27.09;97495.13;4999120;28;966;-76
2021/12/09 13:12:18;;;;;;;;;;;;;;;21.75;28.08;97484.63;4921768;29;1037;-76
2021/12/09 13:15:04;;;;;;;;;;;;;;;21.67;28.54;97498.25;4910225;29;1029;-76
2021/12/09 13:17:40;;;;;;;;;;;;;;;22.32;28.25;97493.91;4902734;29;1984;-76
2021/12/09 13:20:15;;;;;;;;;;;;;;;22.73;27.53;97492.72;4902352;29;954;-77
2021/12/09 13:22:41;;;;;;;;;;;;;;;22.55;27.48;97499.09;4921374;29;1508;-76
2021/12/09 13:25:31;;;;;;;;;;;;;;;22.04;27.92;97487.22;4920989;29;979;-76
2021/12/09 13:28:06;;;;;;;;;;;;;;;21.95;28.04;97489.97;4921264;29;938;-76
2021/12/09 13:55:30;;;;;;;;;;;;;;;21.73;28.65;97502.06;4936362;29;1922;-76
2021/12/09 13:57:57;;;;;;;;;;;;;;;21.67;28.77;97503.13;4916729;29;1523;-76
2021/12/09 14:00:26;;;;;;;;;;;;;;;22.04;29.08;97498.56;4904658;29;967;-76
2021/12/09 14:02:51;;;;;;;;;;;;;;;22.50;28.14;97505.38;4898566;29;1639;-76